Seven Sisters, Texas
Current Conditions -  °F | °C
As of 2:56 PM on Friday 24 Oct 2014 (Local Time) from KNOG Reporting Station
Clear Clear  
Wind Chill: 87°   Ceiling: Unl
Heat Index: 87°   Visibility: 10mi
Dew Point: 61°   Wind: 3mph
Humidity: 41%   Direction: 70°ENE
Pressure: 30.09"   Gusts: NA
Location:  27.9023°N, 98.6357°W
Report Text: KNOG 241956Z AUTO 07003KT 10SM CLR 31/16 A3009 RMK AO2 SLP169 T03060161 $
Loading
Personal Weather Stations






























Interactive Weather Map
Tropical Storm Tracking
New forecast layout! Learn more

10-Day Weather Forecast

Advertisements
Track Severe Weather on mobile